createdAt,value
2019-03-02T00:01:35.349Z,2.60
2019-03-02T00:06:20.168Z,2.60
2019-03-02T00:11:04.903Z,2.50
2019-03-02T00:15:49.473Z,2.40
2019-03-02T00:20:34.007Z,2.40
2019-03-02T00:25:18.752Z,2.40
2019-03-02T00:30:03.585Z,2.40
2019-03-02T00:34:48.179Z,2.40
2019-03-02T00:39:32.804Z,2.40
2019-03-02T00:44:17.561Z,2.40
2019-03-02T00:49:01.987Z,2.20
2019-03-02T00:53:46.818Z,2.20
2019-03-02T00:58:31.370Z,2.20
2019-03-02T01:03:16.921Z,2.30
2019-03-02T01:08:01.593Z,2.20
2019-03-02T01:12:46.165Z,2.20
2019-03-02T01:17:31.664Z,2.30
2019-03-02T01:22:16.594Z,2.30
2019-03-02T01:27:02.187Z,2.40
2019-03-02T01:31:46.929Z,2.30
2019-03-02T01:36:32.254Z,2.30
2019-03-02T01:41:18.860Z,2.30
2019-03-02T01:46:04.591Z,2.20
2019-03-02T01:50:49.368Z,2.20
2019-03-02T01:55:33.949Z,2.20
2019-03-02T02:00:22.695Z,2.10
2019-03-02T02:05:07.494Z,2.20
2019-03-02T02:09:52.004Z,2.20
2019-03-02T02:14:36.541Z,2.20
2019-03-02T02:19:21.047Z,2.20
2019-03-02T02:24:06.260Z,2.30
2019-03-02T02:28:50.868Z,2.10
2019-03-02T02:33:42.455Z,2.20
2019-03-02T02:38:21.691Z,2.20
2019-03-02T02:43:06.244Z,2.20
2019-03-02T02:47:53.742Z,2.20
2019-03-02T02:52:37.064Z,2.20
2019-03-02T02:57:21.865Z,2.20
2019-03-02T03:02:10.796Z,2.20
2019-03-02T03:06:53.598Z,2.20
2019-03-02T03:11:43.654Z,2.20
2019-03-02T03:16:24.539Z,2.20
2019-03-02T03:21:09.137Z,2.20
2019-03-02T03:25:57.096Z,2.30
2019-03-02T03:30:40.343Z,2.30
2019-03-02T03:35:24.761Z,2.30
2019-03-02T03:40:09.758Z,2.30
2019-03-02T03:44:54.363Z,2.40
2019-03-02T03:49:38.927Z,2.30
2019-03-02T03:54:23.527Z,2.30
2019-03-02T03:59:08.071Z,2.40
2019-03-02T04:03:53.127Z,2.40
2019-03-02T04:08:37.647Z,2.40
2019-03-02T04:13:22.152Z,2.40
2019-03-02T04:18:55.278Z,2.30
2019-03-02T04:23:37.162Z,2.40
2019-03-02T04:28:21.677Z,2.40
2019-03-02T04:33:07.580Z,2.50
2019-03-02T04:37:56.530Z,2.50
2019-03-02T04:42:38.753Z,2.40
2019-03-02T04:47:26.222Z,2.30
2019-03-02T04:52:11.535Z,2.20
2019-03-02T04:56:58.897Z,2.20
2019-03-02T05:01:43.654Z,2.20
2019-03-02T05:06:28.750Z,2.20
2019-03-02T05:11:13.389Z,2.20
2019-03-02T05:15:58.090Z,2.20
2019-03-02T05:20:42.689Z,2.20
2019-03-02T05:25:27.343Z,2.20
2019-03-02T05:30:12.064Z,2.20
2019-03-02T05:34:56.717Z,2.20
2019-03-02T05:39:41.271Z,2.10
2019-03-02T05:44:25.883Z,2.20
2019-03-02T05:49:10.503Z,2.20
2019-03-02T05:53:55.077Z,2.20
2019-03-02T05:58:39.669Z,2.20
2019-03-02T06:03:24.258Z,2.20
2019-03-02T06:08:08.799Z,2.20
2019-03-02T06:12:53.342Z,2.30
2019-03-02T06:17:38.093Z,2.30
2019-03-02T06:22:22.783Z,2.30
2019-03-02T06:27:07.822Z,2.30
2019-03-02T06:31:54.120Z,2.30
2019-03-02T06:36:40.925Z,2.30
2019-03-02T06:41:25.759Z,2.30
2019-03-02T06:46:10.350Z,2.30
2019-03-02T06:50:54.901Z,2.40
2019-03-02T06:55:39.459Z,2.50
2019-03-02T07:00:24.323Z,2.50
2019-03-02T07:05:08.969Z,2.50
2019-03-02T07:09:53.498Z,2.70
2019-03-02T07:14:38.077Z,2.80
2019-03-02T07:19:29.363Z,2.80
2019-03-02T07:24:13.925Z,3.00
2019-03-02T07:28:58.578Z,3.10
2019-03-02T07:33:43.072Z,3.20
2019-03-02T07:38:27.594Z,3.30
2019-03-02T07:43:12.125Z,3.40
2019-03-02T07:48:00.311Z,3.40
2019-03-02T07:52:43.103Z,3.50
2019-03-02T07:57:27.773Z,3.70
2019-03-02T08:02:12.347Z,3.80
2019-03-02T08:06:57.986Z,3.90
2019-03-02T08:11:45.504Z,3.80
2019-03-02T08:16:29.325Z,3.80
2019-03-02T08:21:13.868Z,3.90
2019-03-02T08:25:58.492Z,4.00
2019-03-02T08:30:43.010Z,4.00
2019-03-02T08:35:27.712Z,3.80
2019-03-02T08:40:13.333Z,4.10
2019-03-02T08:44:57.829Z,4.10
2019-03-02T08:49:42.841Z,4.40
2019-03-02T08:54:27.479Z,4.70
2019-03-02T08:59:11.988Z,4.80
2019-03-02T09:03:56.524Z,4.90
2019-03-02T09:08:41.212Z,5.00
2019-03-02T09:13:25.870Z,5.10
2019-03-02T09:18:10.532Z,5.10
2019-03-02T09:22:56.270Z,5.20
2019-03-02T09:27:41.440Z,5.20
2019-03-02T09:32:26.248Z,5.20
2019-03-02T09:37:10.858Z,5.10
2019-03-02T09:41:58.015Z,5.10
2019-03-02T09:46:41.714Z,5.20
2019-03-02T09:51:26.328Z,5.20
2019-03-02T09:56:11.034Z,5.40
2019-03-02T10:00:56.795Z,5.30
2019-03-02T10:05:41.849Z,5.30
2019-03-02T10:10:28.931Z,5.20
2019-03-02T10:15:15.566Z,5.20
2019-03-02T10:20:00.998Z,5.30
2019-03-02T10:24:49.722Z,5.20
2019-03-02T10:29:32.659Z,5.00
2019-03-02T10:34:17.311Z,5.10
2019-03-02T10:39:01.975Z,5.30
2019-03-02T10:43:46.706Z,5.20
2019-03-02T10:48:31.214Z,5.10
2019-03-02T10:53:15.814Z,5.10
2019-03-02T10:58:02.356Z,4.90
2019-03-02T11:02:46.704Z,4.90
2019-03-02T11:07:52.918Z,4.90
2019-03-02T11:13:05.541Z,5.10
2019-03-02T11:18:09.008Z,5.30
2019-03-02T11:23:15.830Z,5.10
2019-03-02T11:28:20.484Z,4.80
2019-03-02T11:33:36.124Z,4.80
2019-03-02T11:38:45.383Z,4.90
2019-03-02T11:43:48.547Z,4.80
2019-03-02T11:48:58.560Z,4.70
2019-03-02T11:54:04.809Z,4.50
2019-03-02T11:59:09.291Z,4.50
2019-03-02T12:04:21.291Z,4.50
2019-03-02T12:09:25.434Z,4.60
2019-03-02T12:14:26.105Z,4.70
2019-03-02T12:19:38.400Z,4.80
2019-03-02T12:24:59.938Z,4.90
2019-03-02T12:30:02.079Z,4.90
2019-03-02T12:34:54.945Z,4.80
2019-03-02T12:40:02.917Z,4.80
2019-03-02T12:44:59.023Z,5.00
2019-03-02T12:49:54.766Z,5.20
2019-03-02T12:54:59.028Z,5.40
2019-03-02T12:59:52.073Z,5.50
2019-03-02T13:04:55.537Z,5.50
2019-03-02T13:09:53.147Z,5.50
2019-03-02T13:14:54.893Z,5.30
2019-03-02T13:20:02.758Z,5.30
2019-03-02T13:25:20.332Z,5.30
2019-03-02T13:30:30.458Z,5.10
2019-03-02T13:35:23.382Z,5.10
2019-03-02T13:40:33.578Z,5.00
2019-03-02T13:45:24.220Z,5.20
2019-03-02T13:50:26.160Z,5.20
2019-03-02T13:55:38.733Z,5.20
2019-03-02T14:00:43.862Z,5.20
2019-03-02T14:05:51.829Z,5.20
2019-03-02T14:10:57.322Z,5.00
2019-03-02T14:16:05.076Z,5.00
2019-03-02T14:21:15.902Z,4.90
2019-03-02T14:26:36.807Z,4.90
2019-03-02T14:31:54.883Z,4.90
2019-03-02T14:37:11.184Z,5.00
2019-03-02T14:42:24.474Z,5.00
2019-03-02T14:47:14.363Z,5.00
2019-03-02T14:52:14.874Z,4.90
2019-03-02T14:57:25.834Z,5.00
2019-03-02T15:02:31.689Z,5.20
2019-03-02T15:07:33.990Z,5.20
2019-03-02T15:12:36.050Z,5.20
2019-03-02T15:17:34.514Z,5.10
2019-03-02T15:22:47.347Z,5.10
2019-03-02T15:27:41.375Z,5.00
2019-03-02T15:32:36.341Z,5.00
2019-03-02T15:37:45.888Z,5.00
2019-03-02T15:42:45.616Z,5.00
2019-03-02T15:47:52.772Z,4.90
2019-03-02T15:52:59.246Z,4.90
2019-03-02T15:57:59.054Z,4.90
2019-03-02T16:02:49.789Z,4.80
2019-03-02T16:07:51.976Z,4.80
2019-03-02T16:12:48.051Z,4.80
2019-03-02T16:17:45.155Z,4.80
2019-03-02T16:22:37.296Z,4.80
2019-03-02T16:27:43.754Z,4.80
2019-03-02T16:32:51.936Z,4.70
2019-03-02T16:38:01.626Z,4.60
2019-03-02T16:43:08.247Z,4.60
2019-03-02T16:48:30.041Z,4.50
2019-03-02T16:53:40.020Z,4.50
2019-03-02T16:58:34.279Z,4.50
2019-03-02T17:03:39.042Z,4.50
2019-03-02T17:08:42.129Z,4.50
2019-03-02T17:13:45.578Z,4.40
2019-03-02T17:18:51.992Z,4.40
2019-03-02T17:23:58.590Z,4.40
2019-03-02T17:29:00.837Z,4.40
2019-03-02T17:33:59.488Z,4.40
2019-03-02T17:39:02.327Z,4.40
2019-03-02T17:44:12.120Z,4.50
2019-03-02T17:49:28.479Z,4.50
2019-03-02T17:54:18.888Z,4.50
2019-03-02T17:59:28.424Z,4.70
2019-03-02T18:04:39.277Z,4.80
2019-03-02T18:09:42.699Z,4.60
2019-03-02T18:14:49.827Z,4.70
2019-03-02T18:19:34.733Z,4.60
2019-03-02T18:24:19.457Z,4.60
2019-03-02T18:29:04.008Z,4.60
2019-03-02T18:33:56.191Z,4.60
2019-03-02T18:38:44.460Z,4.60
2019-03-02T18:43:27.254Z,4.60
2019-03-02T18:48:26.248Z,4.70
2019-03-02T18:53:10.756Z,4.70
2019-03-02T18:57:55.415Z,4.80
2019-03-02T19:02:40.017Z,4.80
2019-03-02T19:07:24.876Z,4.90
2019-03-02T19:12:10.944Z,5.00
2019-03-02T19:16:55.680Z,5.10
2019-03-02T19:21:40.375Z,5.00
2019-03-02T19:26:25.357Z,5.10
2019-03-02T19:31:09.939Z,5.10
2019-03-02T19:35:54.558Z,5.10
2019-03-02T19:40:39.216Z,5.10
2019-03-02T19:45:24.156Z,5.10
2019-03-02T19:50:12.042Z,5.10
2019-03-02T19:54:56.934Z,5.00
2019-03-02T20:01:07.529Z,4.80
2019-03-02T20:06:17.515Z,4.70
2019-03-02T20:11:02.248Z,4.70
2019-03-02T20:15:47.167Z,4.80
2019-03-02T20:20:31.816Z,4.80
2019-03-02T20:25:16.697Z,4.90
2019-03-02T20:30:01.265Z,4.80
2019-03-02T20:34:46.011Z,5.00
2019-03-02T20:39:30.605Z,5.00
2019-03-02T20:44:15.144Z,5.00
2019-03-02T20:48:59.774Z,5.00
2019-03-02T20:53:44.462Z,5.10
2019-03-02T20:58:29.128Z,5.10
2019-03-02T21:03:13.740Z,5.20
2019-03-02T21:08:01.588Z,5.20
2019-03-02T21:12:46.151Z,5.30
2019-03-02T21:17:30.717Z,5.30
2019-03-02T21:22:15.514Z,5.40
2019-03-02T21:27:00.322Z,5.40
2019-03-02T21:31:45.122Z,5.50
2019-03-02T21:36:30.076Z,5.50
2019-03-02T21:41:14.631Z,5.50
2019-03-02T21:45:59.239Z,5.50
2019-03-02T21:50:44.242Z,5.50
2019-03-02T21:55:28.825Z,5.50
2019-03-02T22:00:16.061Z,5.50
2019-03-02T22:05:00.663Z,5.50
2019-03-02T22:09:45.295Z,5.50
2019-03-02T22:14:29.883Z,5.60
2019-03-02T22:19:14.441Z,5.50
2019-03-02T22:23:58.971Z,5.30
2019-03-02T22:28:43.598Z,5.10
2019-03-02T22:33:28.963Z,5.00
2019-03-02T22:38:13.657Z,4.90
2019-03-02T22:42:58.532Z,5.00
2019-03-02T22:47:43.269Z,5.20
2019-03-02T22:52:27.804Z,5.30
2019-03-02T22:57:12.436Z,5.20
2019-03-02T23:02:19.888Z,5.10
2019-03-02T23:07:04.523Z,5.10
2019-03-02T23:11:49.097Z,5.10
2019-03-02T23:16:33.653Z,5.30
2019-03-02T23:21:19.030Z,5.40
2019-03-02T23:26:03.646Z,5.50
2019-03-02T23:30:48.172Z,5.60
2019-03-02T23:35:32.742Z,5.70
2019-03-02T23:40:17.389Z,5.70
2019-03-02T23:45:02.003Z,5.80
2019-03-02T23:49:46.579Z,5.90
2019-03-02T23:54:31.133Z,6.00
2019-03-02T23:59:15.648Z,6.00
